TAF KCLM
KCLM 280520Z 2806/2906 VRB04KT 5SM -RA BR SCT012 OVC040 TEMPO 2806/2810 3SM -RA BR BKN012 OVC025 FM281000 28010KT P6SM -RA BKN015 OVC030 FM281600 VRB03KT 4SM -RA BR BKN007 OVC030 FM282100 30006KT P6SM SCT010 BKN040=
METAR KCLM
WC KCLM
WS KCLM
WV KCLM